This is the latest recevied weather packets stored in our database for station/object K7TSD. If no packets are shown the sender has not sent any weather packets the latest 10 day(s).
| Time | Temp. | Humidity | Pressure | Rain* | Wind** | Luminosity | Snow |
|---|---|---|---|---|---|---|---|
| 1777880344 | 11.67° C | 50% | 1007 hPa | 0 mm | - | 0 W/m² | - |
| 1777880041 | 11.67° C | 49% | 1007.2 hPa | 0 mm | - | 0 W/m² | - |
| 1777879740 | 11.67° C | 49% | 1007.2 hPa | 0 mm | - | 0 W/m² | - |
| 1777879436 | 11.67° C | 49% | 1007.3 hPa | 0 mm | - | 0 W/m² | - |
| 1777879134 | 12.22° C | 49% | 1007.1 hPa | 0 mm | - | 0 W/m² | - |
| 1777878830 | 12.78° C | 47% | 1007.2 hPa | 0 mm | - | 0 W/m² | - |
| 1777878528 | 12.78° C | 48% | 1007.3 hPa | 0 mm | - | 0 W/m² | - |
| 1777878224 | 12.78° C | 47% | 1007.1 hPa | 0 mm | - | 0 W/m² | - |
| 1777877920 | 13.33° C | 46% | 1007.1 hPa | 0 mm | - | 0 W/m² | - |
| 1777877617 | 12.78° C | 46% | 1007.1 hPa | 0 mm | - | 0 W/m² | - |
| 1777877313 | 12.78° C | 45% | 1007 hPa | 0 mm | - | 0 W/m² | - |
| 1777877011 | 12.22° C | 44% | 1006.8 hPa | 0 mm | - | 0 W/m² | - |
| 1777876709 | 10.56° C | 49% | 1007.1 hPa | 0 mm | - | 0 W/m² | - |
| 1777876406 | 10.56° C | 51% | 1006.8 hPa | 0 mm | - | 0 W/m² | - |
| 1777876102 | 11.11° C | 50% | 1006.8 hPa | 0 mm | - | 0 W/m² | - |
| 1777875798 | 11.67° C | 48% | 1006.6 hPa | 0 mm | - | 0 W/m² | - |
| 1777875495 | 11.11° C | 48% | 1006.7 hPa | 0 mm | - | 0 W/m² | - |
| 1777875192 | 11.11° C | 47% | 1006.8 hPa | 0 mm | - | 0 W/m² | - |
| 1777874889 | 11.11° C | 48% | 1006.6 hPa | 0 mm | - | 0 W/m² | - |
| 1777874584 | 11.11° C | 47% | 1006.8 hPa | 0 mm | - | 0 W/m² | - |
| 1777874282 | 10.56° C | 49% | 1006.7 hPa | 0 mm | - | 0 W/m² | - |
| 1777873979 | 10.56° C | 49% | 1006.5 hPa | 0 mm | - | 0 W/m² | - |
| 1777873676 | 11.11° C | 48% | 1006.6 hPa | 0 mm | - | 0 W/m² | - |
| 1777873374 | 10.56° C | 48% | 1006.6 hPa | 0 mm | - | 0 W/m² | - |
| 1777873070 | 10.56° C | 50% | 1006.5 hPa | 0 mm | - | 0 W/m² | - |
* Rain latest hour (hover to see other rain measurements)
** Current wind speed in m/s (hover to see current wind gust speed)